createdAt,value
2023-03-19T00:00:21.786Z,11.50
2023-03-19T00:02:51.851Z,11.43
2023-03-19T00:05:19.970Z,11.28
2023-03-19T00:07:47.850Z,11.36
2023-03-19T00:10:15.841Z,11.43
2023-03-19T00:12:43.837Z,11.49
2023-03-19T00:15:14.537Z,11.50
2023-03-19T00:17:43.966Z,11.53
2023-03-19T00:20:15.569Z,11.46
2023-03-19T00:22:43.780Z,11.54
2023-03-19T00:25:12.214Z,11.21
2023-03-19T00:27:41.255Z,11.34
2023-03-19T00:30:11.452Z,11.41
2023-03-19T00:32:39.610Z,11.50
2023-03-19T00:35:10.696Z,11.55
2023-03-19T00:37:41.020Z,11.39
2023-03-19T00:40:11.764Z,11.25
2023-03-19T00:42:41.288Z,10.87
2023-03-19T00:45:10.660Z,10.46
2023-03-19T00:47:38.847Z,10.61
2023-03-19T00:50:07.790Z,10.84
2023-03-19T00:52:37.052Z,11.13
2023-03-19T00:55:05.424Z,11.29
2023-03-19T00:57:33.240Z,11.19
2023-03-19T01:00:01.035Z,10.98
2023-03-19T01:02:29.285Z,11.01
2023-03-19T01:04:57.235Z,10.69
2023-03-19T01:07:25.140Z,10.41
2023-03-19T01:09:54.412Z,10.36
2023-03-19T01:12:22.403Z,10.88
2023-03-19T01:14:50.333Z,11.13
2023-03-19T01:17:18.710Z,11.14
2023-03-19T01:19:46.691Z,11.26
2023-03-19T01:22:16.651Z,11.35
2023-03-19T01:24:49.158Z,11.23
2023-03-19T01:27:19.430Z,11.23
2023-03-19T01:29:47.375Z,11.19
2023-03-19T01:32:28.535Z,10.98
2023-03-19T01:35:15.122Z,11.23
2023-03-19T01:37:43.505Z,11.38
2023-03-19T01:40:13.973Z,11.34
2023-03-19T01:42:58.761Z,11.47
2023-03-19T01:45:43.849Z,11.38
2023-03-19T01:48:39.069Z,11.52
2023-03-19T01:51:13.169Z,11.51
2023-03-19T01:54:02.270Z,11.25
2023-03-19T01:56:39.130Z,11.09
2023-03-19T01:59:32.516Z,11.07
2023-03-19T02:02:30.684Z,10.95
2023-03-19T02:05:05.687Z,11.17
2023-03-19T02:07:36.544Z,11.21
2023-03-19T02:10:09.199Z,11.24
2023-03-19T02:12:37.308Z,10.98
2023-03-19T02:15:09.383Z,11.15
2023-03-19T02:17:38.144Z,11.32
2023-03-19T02:20:14.596Z,11.47
2023-03-19T02:22:47.509Z,11.58
2023-03-19T02:25:23.660Z,11.53
2023-03-19T02:27:53.657Z,11.47
2023-03-19T02:30:24.730Z,11.44
2023-03-19T02:32:52.943Z,11.39
2023-03-19T02:35:21.367Z,11.36
2023-03-19T02:37:49.733Z,11.41
2023-03-19T02:40:22.425Z,11.64
2023-03-19T02:42:51.279Z,11.73
2023-03-19T02:45:21.344Z,11.53
2023-03-19T02:47:49.217Z,11.22
2023-03-19T02:50:17.331Z,11.28
2023-03-19T02:52:45.259Z,10.98
2023-03-19T02:55:18.316Z,11.30
2023-03-19T02:57:46.518Z,11.24
2023-03-19T03:00:17.073Z,11.40
2023-03-19T03:02:46.838Z,11.59
2023-03-19T03:05:15.492Z,11.59
2023-03-19T03:07:44.998Z,11.68
2023-03-19T03:10:13.611Z,11.70
2023-03-19T03:12:41.549Z,11.62
2023-03-19T03:15:10.369Z,11.52
2023-03-19T03:17:38.737Z,11.59
2023-03-19T03:20:11.569Z,11.62
2023-03-19T03:22:39.947Z,11.64
2023-03-19T03:25:09.851Z,11.64
2023-03-19T03:27:38.331Z,11.45
2023-03-19T03:30:08.065Z,11.39
2023-03-19T03:32:36.770Z,11.17
2023-03-19T03:35:05.423Z,11.35
2023-03-19T03:37:38.036Z,11.34
2023-03-19T03:40:08.379Z,11.28
2023-03-19T03:42:38.203Z,11.32
2023-03-19T03:45:10.766Z,11.45
2023-03-19T03:47:39.590Z,11.37
2023-03-19T03:50:11.059Z,11.37
2023-03-19T03:52:42.050Z,11.49
2023-03-19T03:55:10.910Z,11.37
2023-03-19T03:57:38.665Z,11.45
2023-03-19T04:00:07.494Z,11.43
2023-03-19T04:02:41.393Z,11.52
2023-03-19T04:05:13.377Z,11.51
2023-03-19T04:07:42.809Z,11.53
2023-03-19T04:10:12.871Z,11.50
2023-03-19T04:12:41.564Z,10.98
2023-03-19T04:15:11.954Z,10.87
2023-03-19T04:17:42.628Z,11.11
2023-03-19T04:20:12.562Z,11.29
2023-03-19T04:22:41.811Z,11.38
2023-03-19T04:25:10.489Z,11.51
2023-03-19T04:27:39.893Z,11.34
2023-03-19T04:30:11.525Z,10.84
2023-03-19T04:32:40.442Z,10.80
2023-03-19T04:35:09.471Z,11.12
2023-03-19T04:37:37.604Z,11.16
2023-03-19T04:40:08.454Z,11.24
2023-03-19T04:42:38.561Z,11.28
2023-03-19T04:45:14.662Z,11.33
2023-03-19T04:47:43.657Z,11.27
2023-03-19T04:50:12.909Z,11.35
2023-03-19T04:52:42.635Z,11.14
2023-03-19T04:55:13.434Z,11.25
2023-03-19T04:57:52.074Z,11.24
2023-03-19T05:00:23.057Z,11.16
2023-03-19T05:02:51.361Z,11.27
2023-03-19T05:05:19.460Z,11.37
2023-03-19T05:07:47.698Z,11.39
2023-03-19T05:10:16.962Z,11.43
2023-03-19T05:12:45.070Z,11.36
2023-03-19T05:15:13.993Z,11.29
2023-03-19T05:17:54.483Z,11.33
2023-03-19T05:20:25.462Z,11.34
2023-03-19T05:22:59.482Z,11.35
2023-03-19T05:25:42.169Z,11.44
2023-03-19T05:28:14.113Z,11.53
2023-03-19T05:30:43.206Z,11.47
2023-03-19T05:33:40.522Z,11.38
2023-03-19T05:36:09.248Z,11.45
2023-03-19T05:39:03.965Z,11.38
2023-03-19T05:41:37.727Z,11.37
2023-03-19T05:44:07.753Z,11.41
2023-03-19T05:46:46.761Z,11.46
2023-03-19T05:49:14.912Z,11.44
2023-03-19T05:51:42.860Z,11.55
2023-03-19T05:54:11.758Z,11.62
2023-03-19T05:56:53.733Z,11.57
2023-03-19T05:59:35.085Z,11.63
2023-03-19T06:02:17.470Z,11.57
2023-03-19T06:04:45.747Z,11.54
2023-03-19T06:07:13.784Z,11.55
2023-03-19T06:09:42.126Z,11.39
2023-03-19T06:12:13.755Z,11.50
2023-03-19T06:15:02.290Z,11.59
2023-03-19T06:17:41.877Z,11.51
2023-03-19T06:20:12.597Z,11.18
2023-03-19T06:22:41.502Z,11.24
2023-03-19T06:25:09.793Z,11.25
2023-03-19T06:27:40.526Z,11.33
2023-03-19T06:30:28.629Z,11.54
2023-03-19T06:33:00.320Z,11.63
2023-03-19T06:35:29.338Z,11.66
2023-03-19T06:37:57.300Z,11.73
2023-03-19T06:40:25.203Z,11.78
2023-03-19T06:42:54.549Z,11.81
2023-03-19T06:45:22.447Z,11.78
2023-03-19T06:47:53.395Z,11.84
2023-03-19T06:50:23.548Z,11.93
2023-03-19T06:52:52.098Z,11.87
2023-03-19T06:55:20.618Z,11.75
2023-03-19T06:57:50.594Z,11.88
2023-03-19T07:00:21.012Z,11.90
2023-03-19T07:02:49.191Z,11.96
2023-03-19T07:05:17.140Z,12.07
2023-03-19T07:07:46.684Z,11.97
2023-03-19T07:10:14.816Z,11.95
2023-03-19T07:12:43.322Z,11.99
2023-03-19T07:15:12.090Z,12.02
2023-03-19T07:17:41.680Z,11.93
2023-03-19T07:20:11.167Z,12.05
2023-03-19T07:22:39.091Z,12.18
2023-03-19T07:25:07.810Z,12.26
2023-03-19T07:27:35.870Z,12.30
2023-03-19T07:30:03.804Z,12.23
2023-03-19T07:32:32.401Z,12.38
2023-03-19T07:35:01.878Z,12.36
2023-03-19T07:37:29.763Z,12.28
2023-03-19T07:39:57.519Z,12.21
2023-03-19T07:42:25.835Z,12.42
2023-03-19T07:44:53.677Z,12.57
2023-03-19T07:47:28.833Z,12.58
2023-03-19T07:49:57.926Z,12.46
2023-03-19T07:52:28.670Z,12.56
2023-03-19T07:54:56.806Z,12.56
2023-03-19T07:57:25.481Z,12.53
2023-03-19T07:59:53.393Z,12.67
2023-03-19T08:02:23.720Z,12.68
2023-03-19T08:04:52.948Z,12.83
2023-03-19T08:07:21.656Z,13.09
2023-03-19T08:09:51.562Z,12.93
2023-03-19T08:12:20.343Z,12.90
2023-03-19T08:14:48.764Z,13.00
2023-03-19T08:17:17.176Z,13.18
2023-03-19T08:19:45.035Z,13.01
2023-03-19T08:22:13.087Z,13.00
2023-03-19T08:24:41.555Z,13.03
2023-03-19T08:27:11.217Z,12.99
2023-03-19T08:29:39.178Z,12.99
2023-03-19T08:32:07.688Z,12.91
2023-03-19T08:34:36.204Z,13.00
2023-03-19T08:37:04.237Z,13.00
2023-03-19T08:39:32.285Z,13.11
2023-03-19T08:42:00.192Z,13.14
2023-03-19T08:44:29.716Z,13.50
2023-03-19T08:46:57.592Z,13.67
2023-03-19T08:49:25.460Z,13.64
2023-03-19T08:51:53.352Z,13.84
2023-03-19T08:54:22.906Z,13.65
2023-03-19T08:56:51.051Z,13.85
2023-03-19T08:59:19.058Z,14.00
2023-03-19T09:01:52.171Z,14.36
2023-03-19T09:04:23.080Z,14.44
2023-03-19T09:06:51.678Z,14.51
2023-03-19T09:09:20.246Z,14.65
2023-03-19T09:11:48.447Z,15.00
2023-03-19T09:14:17.945Z,15.46
2023-03-19T09:16:45.937Z,15.73
2023-03-19T09:19:15.600Z,15.71
2023-03-19T09:21:44.810Z,16.01
2023-03-19T09:24:13.074Z,16.27
2023-03-19T09:26:41.158Z,16.23
2023-03-19T09:29:09.181Z,15.98
2023-03-19T09:31:38.318Z,16.50
2023-03-19T09:34:07.078Z,16.20
2023-03-19T09:36:36.872Z,16.07
2023-03-19T09:39:05.370Z,16.20
2023-03-19T09:41:41.323Z,16.78
2023-03-19T09:44:13.957Z,16.07
2023-03-19T09:46:48.167Z,16.44
2023-03-19T09:49:25.016Z,16.48
2023-03-19T09:51:57.687Z,16.70
2023-03-19T09:54:34.742Z,17.05
2023-03-19T09:57:04.220Z,16.70
2023-03-19T09:59:32.126Z,17.19
2023-03-19T10:02:25.347Z,17.14
2023-03-19T10:05:05.673Z,17.40
2023-03-19T10:07:50.774Z,17.26
2023-03-19T10:10:36.739Z,17.28
2023-03-19T10:13:13.272Z,17.09
2023-03-19T10:15:44.624Z,18.10
2023-03-19T10:18:18.106Z,18.47
2023-03-19T10:20:53.362Z,18.38
2023-03-19T10:23:36.271Z,18.56
2023-03-19T10:26:06.756Z,19.11
2023-03-19T10:28:34.813Z,18.65
2023-03-19T10:31:25.885Z,18.18
2023-03-19T10:34:06.258Z,18.79
2023-03-19T10:36:37.071Z,18.83
2023-03-19T10:39:07.876Z,19.49
2023-03-19T10:41:52.175Z,19.30
2023-03-19T10:44:32.309Z,19.09
2023-03-19T10:47:10.343Z,18.79
2023-03-19T10:49:38.431Z,19.39
2023-03-19T10:52:06.946Z,19.30
2023-03-19T10:54:44.815Z,19.10
2023-03-19T10:57:24.152Z,19.58
2023-03-19T10:59:52.185Z,19.29
2023-03-19T11:02:28.071Z,19.09
2023-03-19T11:05:20.113Z,19.27
2023-03-19T11:07:50.952Z,19.32
2023-03-19T11:10:30.407Z,19.19
2023-03-19T11:13:02.217Z,19.18
2023-03-19T11:15:44.924Z,19.57
2023-03-19T11:18:24.222Z,20.16
2023-03-19T11:21:28.972Z,19.74
2023-03-19T11:24:15.781Z,20.14
2023-03-19T11:27:04.554Z,20.24
2023-03-19T11:29:53.176Z,19.87
2023-03-19T11:32:44.194Z,19.75
2023-03-19T11:35:43.169Z,20.23
2023-03-19T11:38:26.944Z,20.07
2023-03-19T11:41:26.362Z,20.52
2023-03-19T11:44:23.150Z,20.66
2023-03-19T11:47:26.461Z,21.44
2023-03-19T11:50:22.400Z,21.48
2023-03-19T11:53:23.205Z,21.23
2023-03-19T11:56:08.426Z,21.58
2023-03-19T11:59:16.140Z,21.48
2023-03-19T12:02:19.037Z,20.69
2023-03-19T12:05:23.437Z,20.54
2023-03-19T12:08:35.511Z,20.26
2023-03-19T12:11:22.004Z,20.37
2023-03-19T12:14:26.704Z,20.36
2023-03-19T12:17:39.198Z,20.88
2023-03-19T12:20:50.071Z,20.33
2023-03-19T12:23:49.792Z,20.55
2023-03-19T12:26:26.974Z,20.38
2023-03-19T12:29:04.055Z,20.45
2023-03-19T12:32:00.228Z,20.59
2023-03-19T12:34:36.473Z,21.28
2023-03-19T12:37:19.846Z,20.73
2023-03-19T12:39:55.943Z,20.65
2023-03-19T12:42:29.975Z,20.66
2023-03-19T12:45:07.072Z,20.02
2023-03-19T12:48:03.977Z,19.63
2023-03-19T12:50:58.485Z,18.37
2023-03-19T12:53:38.018Z,18.06
2023-03-19T12:56:13.877Z,18.31
2023-03-19T12:58:58.089Z,17.52
2023-03-19T13:01:31.480Z,16.56
2023-03-19T13:04:07.768Z,17.12
2023-03-19T13:06:40.856Z,17.59
2023-03-19T13:09:18.957Z,17.27
2023-03-19T13:11:53.080Z,16.67
2023-03-19T13:14:28.908Z,16.40
2023-03-19T13:17:10.513Z,15.56
2023-03-19T13:19:44.885Z,15.64
2023-03-19T13:22:19.988Z,15.58
2023-03-19T13:24:50.673Z,15.95
2023-03-19T13:27:23.277Z,15.92
2023-03-19T13:30:17.755Z,15.72
2023-03-19T13:32:49.273Z,15.63
2023-03-19T13:35:37.147Z,16.11
2023-03-19T13:38:16.689Z,15.93
2023-03-19T13:40:47.691Z,15.23
2023-03-19T13:43:53.203Z,15.79
2023-03-19T13:46:46.180Z,16.11
2023-03-19T13:49:27.300Z,15.96
2023-03-19T13:51:58.380Z,15.71
2023-03-19T13:54:39.381Z,15.85
2023-03-19T13:57:35.588Z,16.30
2023-03-19T14:00:41.006Z,16.36
2023-03-19T14:03:21.435Z,16.84
2023-03-19T14:05:51.827Z,17.00
2023-03-19T14:08:22.855Z,16.96
2023-03-19T14:10:54.260Z,16.81
2023-03-19T14:13:31.376Z,16.95
2023-03-19T14:16:13.760Z,17.10
2023-03-19T14:18:44.112Z,16.68
2023-03-19T14:21:18.944Z,16.97
2023-03-19T14:23:57.730Z,17.22
2023-03-19T14:26:29.869Z,17.24
2023-03-19T14:29:01.812Z,17.63
2023-03-19T14:31:43.610Z,17.67
2023-03-19T14:34:33.672Z,17.83
2023-03-19T14:37:04.667Z,18.12
2023-03-19T14:39:35.666Z,17.61
2023-03-19T14:42:08.597Z,17.25
2023-03-19T14:45:14.639Z,17.03
2023-03-19T14:47:57.487Z,16.49
2023-03-19T14:51:06.790Z,16.55
2023-03-19T14:53:41.548Z,15.83
2023-03-19T14:56:16.056Z,15.66
2023-03-19T14:58:54.151Z,16.18
2023-03-19T15:01:24.729Z,16.05
2023-03-19T15:03:58.226Z,16.20
2023-03-19T15:06:26.972Z,16.17
2023-03-19T15:08:54.913Z,15.26
2023-03-19T15:11:42.992Z,15.04
2023-03-19T15:14:37.818Z,14.88
2023-03-19T15:17:16.923Z,15.40
2023-03-19T15:19:44.993Z,14.87
2023-03-19T15:22:15.119Z,14.99
2023-03-19T15:24:43.483Z,14.96
2023-03-19T15:27:19.748Z,14.75
2023-03-19T15:29:51.561Z,14.99
2023-03-19T15:33:02.825Z,15.31
2023-03-19T15:35:24.249Z,15.06
2023-03-19T15:37:55.962Z,15.14
2023-03-19T15:40:27.189Z,14.96
2023-03-19T15:42:55.930Z,14.72
2023-03-19T15:45:27.188Z,14.93
2023-03-19T15:48:00.735Z,15.32
2023-03-19T15:50:32.381Z,14.98
2023-03-19T15:53:03.957Z,14.96
2023-03-19T15:55:34.178Z,14.89
2023-03-19T15:58:07.660Z,15.01
2023-03-19T16:00:40.258Z,15.25
2023-03-19T16:03:13.286Z,15.14
2023-03-19T16:05:41.222Z,15.16
2023-03-19T16:08:16.408Z,15.19
2023-03-19T16:10:47.369Z,15.24
2023-03-19T16:13:26.965Z,15.11
2023-03-19T16:16:04.451Z,15.21
2023-03-19T16:18:43.151Z,15.00
2023-03-19T16:21:16.691Z,15.04
2023-03-19T16:23:46.844Z,15.02
2023-03-19T16:26:21.687Z,14.78
2023-03-19T16:29:05.983Z,14.83
2023-03-19T16:31:44.432Z,14.69
2023-03-19T16:34:25.941Z,14.83
2023-03-19T16:36:54.029Z,14.71
2023-03-19T16:39:27.313Z,14.57
2023-03-19T16:42:16.626Z,14.35
2023-03-19T16:44:48.394Z,14.34
2023-03-19T16:47:17.684Z,14.32
2023-03-19T16:49:47.363Z,14.51
2023-03-19T16:52:18.359Z,13.94
2023-03-19T16:54:46.791Z,13.32
2023-03-19T16:57:17.040Z,13.35
2023-03-19T16:59:45.977Z,13.49
2023-03-19T17:02:14.219Z,13.00
2023-03-19T17:04:43.648Z,13.38
2023-03-19T17:07:11.653Z,13.78
2023-03-19T17:09:39.700Z,13.87
2023-03-19T17:12:09.411Z,13.98
2023-03-19T17:14:38.537Z,14.01
2023-03-19T17:17:14.144Z,14.10
2023-03-19T17:19:43.868Z,13.98
2023-03-19T17:22:13.193Z,14.06
2023-03-19T17:24:41.644Z,14.04
2023-03-19T17:27:11.196Z,14.14
2023-03-19T17:29:39.721Z,14.17
2023-03-19T17:32:17.902Z,14.16
2023-03-19T17:34:48.000Z,14.18
2023-03-19T17:37:16.115Z,14.13
2023-03-19T17:39:45.908Z,14.43
2023-03-19T17:42:24.961Z,14.71
2023-03-19T17:44:53.344Z,14.82
2023-03-19T17:47:21.344Z,14.20
2023-03-19T17:49:50.605Z,14.00
2023-03-19T17:52:19.493Z,14.00
2023-03-19T17:54:47.875Z,13.94
2023-03-19T17:57:17.840Z,14.18
2023-03-19T17:59:46.024Z,14.05
2023-03-19T18:02:26.062Z,14.18
2023-03-19T18:04:56.209Z,14.00
2023-03-19T18:07:24.235Z,13.85
2023-03-19T18:09:52.454Z,13.61
2023-03-19T18:12:20.692Z,13.62
2023-03-19T18:14:48.752Z,12.90
2023-03-19T18:17:17.903Z,12.45
2023-03-19T18:19:49.188Z,12.55
2023-03-19T18:22:20.409Z,12.86
2023-03-19T18:24:48.591Z,13.03
2023-03-19T18:27:18.818Z,13.19
2023-03-19T18:29:46.899Z,13.16
2023-03-19T18:32:21.074Z,13.27
2023-03-19T18:34:50.311Z,13.33
2023-03-19T18:37:20.859Z,13.30
2023-03-19T18:39:50.088Z,12.90
2023-03-19T18:42:24.838Z,12.75
2023-03-19T18:45:16.178Z,12.91
2023-03-19T18:48:08.239Z,13.01
2023-03-19T18:50:36.531Z,13.01
2023-03-19T18:53:06.005Z,12.99
2023-03-19T18:55:34.331Z,12.92
2023-03-19T18:58:04.288Z,13.04
2023-03-19T19:00:35.934Z,13.14
2023-03-19T19:03:05.818Z,13.10
2023-03-19T19:05:34.873Z,13.10
2023-03-19T19:08:05.114Z,12.84
2023-03-19T19:10:35.677Z,12.85
2023-03-19T19:13:04.853Z,12.95
2023-03-19T19:15:35.996Z,13.04
2023-03-19T19:18:15.875Z,12.99
2023-03-19T19:20:45.906Z,12.91
2023-03-19T19:23:16.068Z,12.93
2023-03-19T19:25:46.378Z,12.93
2023-03-19T19:28:21.909Z,12.98
2023-03-19T19:30:50.698Z,12.81
2023-03-19T19:33:20.339Z,12.74
2023-03-19T19:35:49.653Z,12.37
2023-03-19T19:38:19.838Z,12.25
2023-03-19T19:40:51.700Z,12.11
2023-03-19T19:43:21.737Z,12.28
2023-03-19T19:45:52.966Z,12.26
2023-03-19T19:48:22.745Z,11.90
2023-03-19T19:50:51.026Z,11.87
2023-03-19T19:53:23.929Z,11.93
2023-03-19T19:55:52.450Z,12.13
2023-03-19T19:58:22.828Z,12.28
2023-03-19T20:01:02.681Z,12.38
2023-03-19T20:03:33.770Z,12.45
2023-03-19T20:06:03.012Z,12.50
2023-03-19T20:08:32.968Z,12.57
2023-03-19T20:11:00.918Z,12.62
2023-03-19T20:13:32.618Z,12.64
2023-03-19T20:16:01.304Z,12.66
2023-03-19T20:18:33.418Z,12.60
2023-03-19T20:21:02.342Z,12.67
2023-03-19T20:23:30.666Z,12.66
2023-03-19T20:26:01.822Z,12.70
2023-03-19T20:28:35.744Z,12.70
2023-03-19T20:31:05.632Z,12.73
2023-03-19T20:33:34.789Z,12.73
2023-03-19T20:36:07.305Z,12.76
2023-03-19T20:38:38.034Z,12.76
2023-03-19T20:41:24.109Z,12.81
2023-03-19T20:43:55.787Z,12.80
2023-03-19T20:46:26.444Z,12.68
2023-03-19T20:48:56.606Z,12.70
2023-03-19T20:51:31.510Z,12.59
2023-03-19T20:54:00.456Z,12.62
2023-03-19T20:56:30.769Z,12.46
2023-03-19T20:59:01.963Z,12.55
2023-03-19T21:01:30.827Z,12.62
2023-03-19T21:04:03.272Z,12.33
2023-03-19T21:06:52.580Z,12.43
2023-03-19T21:09:26.023Z,12.96
2023-03-19T21:11:57.650Z,13.23
2023-03-19T21:14:27.026Z,13.40
2023-03-19T21:16:55.451Z,13.56
2023-03-19T21:19:24.028Z,13.49
2023-03-19T21:21:54.927Z,13.67
2023-03-19T21:24:24.719Z,13.76
2023-03-19T21:26:56.942Z,13.85
2023-03-19T21:29:32.535Z,13.80
2023-03-19T21:32:00.752Z,13.92
2023-03-19T21:34:29.489Z,13.76
2023-03-19T21:36:58.369Z,13.61
2023-03-19T21:39:26.390Z,13.63
2023-03-19T21:41:57.172Z,13.70
2023-03-19T21:44:29.765Z,13.65
2023-03-19T21:46:57.732Z,13.73
2023-03-19T21:49:25.811Z,13.84
2023-03-19T21:51:53.748Z,13.76
2023-03-19T21:54:21.892Z,13.86
2023-03-19T21:56:50.493Z,13.77
2023-03-19T21:59:33.810Z,13.40
2023-03-19T22:02:04.246Z,13.46
2023-03-19T22:04:32.530Z,13.67
2023-03-19T22:07:00.775Z,13.60
2023-03-19T22:09:29.051Z,13.35
2023-03-19T22:11:57.363Z,13.14
2023-03-19T22:14:28.016Z,13.15
2023-03-19T22:16:57.818Z,13.32
2023-03-19T22:19:26.061Z,13.58
2023-03-19T22:21:55.256Z,13.24
2023-03-19T22:24:23.344Z,13.33
2023-03-19T22:26:57.506Z,13.10
2023-03-19T22:29:26.638Z,13.46
2023-03-19T22:31:56.491Z,13.55
2023-03-19T22:34:28.188Z,13.67
2023-03-19T22:36:56.592Z,13.77
2023-03-19T22:39:24.679Z,13.75
2023-03-19T22:41:52.957Z,13.44
2023-03-19T22:44:27.051Z,13.19
2023-03-19T22:46:58.600Z,13.44
2023-03-19T22:49:30.205Z,13.05
2023-03-19T22:52:00.853Z,12.70
2023-03-19T22:54:28.775Z,13.07
2023-03-19T22:56:57.807Z,13.11
2023-03-19T22:59:25.829Z,12.93
2023-03-19T23:01:53.954Z,13.18
2023-03-19T23:04:24.362Z,13.22
2023-03-19T23:06:55.602Z,13.36
2023-03-19T23:09:25.206Z,13.14
2023-03-19T23:11:53.998Z,12.75
2023-03-19T23:14:29.641Z,12.64
2023-03-19T23:17:03.100Z,12.63
2023-03-19T23:19:33.170Z,12.39
2023-03-19T23:22:04.831Z,12.48
2023-03-19T23:24:33.583Z,12.62
2023-03-19T23:27:02.810Z,12.23
2023-03-19T23:29:34.290Z,12.12
2023-03-19T23:32:03.285Z,12.35
2023-03-19T23:34:39.819Z,12.33
2023-03-19T23:37:15.729Z,12.33
2023-03-19T23:39:43.642Z,12.30
2023-03-19T23:42:25.942Z,12.63
2023-03-19T23:44:57.068Z,12.77
2023-03-19T23:47:25.176Z,12.57
2023-03-19T23:49:53.039Z,11.92
2023-03-19T23:52:22.433Z,12.29
2023-03-19T23:54:50.920Z,12.10
2023-03-19T23:57:18.826Z,12.37
2023-03-19T23:59:50.830Z,12.78
